Time;durP1;ratioP1;P1;durP2;ratioP2;P2;SDS_P1;SDS_P2;PMS_P1;PMS_P2;Temp;Humidity;BMP_temperature;BMP_pressure;BME280_temperature;BME280_humidity;BME280_pressure;Samples;Min_cycle;Max_cycle;Signal;HPM_P1;HPM_P2
2023/04/04 00:02:02;;;;;;;;;;;;;;;;;;4439402;32;19947;-74
2023/04/04 00:04:27;;;;;;;;;;;;;;;;;;4453280;32;19947;-73
2023/04/04 00:06:52;;;;;;;;;;;;;;;;;;4454113;32;19945;-74
2023/04/04 00:09:18;;;;;;;;;;;;;;;;;;4452946;32;19944;-74
2023/04/04 00:11:43;;;;;;;;;;;;;;;;;;4452808;32;19940;-74
2023/04/04 00:14:08;;;;;;;;;;;;;;;;;;4438437;32;19937;-74
2023/04/04 00:16:34;;;;;;;;;;;;;;;;;;4452503;32;20317;-74
2023/04/04 00:18:59;;;;;;;;;;;;;;;;;;4453172;32;19944;-75
2023/04/04 00:21:26;;;;;;;;;;;;;;;;;;4453527;32;19962;-75
2023/04/04 00:23:53;;;;;;;;;;;;;;;;;;4438329;32;19933;-74
2023/04/04 00:26:18;;;;;;;;;;;;;;;;;;4439068;32;19929;-75
2023/04/04 00:28:43;;;;;;;;;;;;;;;;;;4429782;32;19965;-74
2023/04/04 00:31:08;;;;;;;;;;;;;;;;;;4423690;32;19976;-75
2023/04/04 00:33:33;;;;;;;;;;;;;;;;;;4433468;32;19971;-74
2023/04/04 00:35:58;;;;;;;;;;;;;;;;;;4439112;32;19937;-74
2023/04/04 00:38:23;;;;;;;;;;;;;;;;;;4457182;32;19971;-73
2023/04/04 00:40:49;;;;;;;;;;;;;;;;;;4456007;32;19990;-72
2023/04/04 00:43:14;;;;;;;;;;;;;;;;;;4457010;32;19969;-72
2023/04/04 00:45:39;;;;;;;;;;;;;;;;;;4457216;32;19932;-74
2023/04/04 00:48:04;;;;;;;;;;;;;;;;;;4441061;32;19936;-73
2023/04/04 00:50:31;;;;;;;;;;;;;;;;;;4453876;32;19937;-74
2023/04/04 00:52:56;;;;;;;;;;;;;;;;;;4453507;32;19989;-74
2023/04/04 00:55:22;;;;;;;;;;;;;;;;;;4438906;32;20307;-73
2023/04/04 00:57:47;;;;;;;;;;;;;;;;;;4437959;32;20002;-73
2023/04/04 01:00:12;;;;;;;;;;;;;;;;;;4439473;32;20365;-74
2023/04/04 01:02:37;;;;;;;;;;;;;;;;;;4438892;32;19936;-73
2023/04/04 01:05:03;;;;;;;;;;;;;;;;;;4453292;32;19936;-73
2023/04/04 01:07:28;;;;;;;;;;;;;;;;;;4452466;32;20271;-74
2023/04/04 01:09:53;;;;;;;;;;;;;;;;;;4452740;32;19968;-74
2023/04/04 01:12:18;;;;;;;;;;;;;;;;;;4437729;32;19945;-74
2023/04/04 01:14:43;;;;;;;;;;;;;;;;;;4437577;32;19964;-74
2023/04/04 01:17:08;;;;;;;;;;;;;;;;;;4437614;32;19983;-74
2023/04/04 01:19:33;;;;;;;;;;;;;;;;;;4437979;32;19972;-74
2023/04/04 01:21:59;;;;;;;;;;;;;;;;;;4439591;32;19950;-74
2023/04/04 01:24:24;;;;;;;;;;;;;;;;;;4451473;32;19980;-74
2023/04/04 01:26:49;;;;;;;;;;;;;;;;;;4451772;32;19947;-74
2023/04/04 01:29:14;;;;;;;;;;;;;;;;;;4451541;32;19932;-74
2023/04/04 01:31:40;;;;;;;;;;;;;;;;;;4451609;32;20352;-74
2023/04/04 01:34:05;;;;;;;;;;;;;;;;;;4453514;32;19941;-74
2023/04/04 01:36:30;;;;;;;;;;;;;;;;;;4453169;32;19940;-74
2023/04/04 01:38:55;;;;;;;;;;;;;;;;;;4452017;32;19947;-74
2023/04/04 01:41:21;;;;;;;;;;;;;;;;;;4451481;32;19966;-75
2023/04/04 01:43:46;;;;;;;;;;;;;;;;;;4452943;32;19944;-74
2023/04/04 01:46:11;;;;;;;;;;;;;;;;;;4451370;32;19965;-74
2023/04/04 01:48:36;;;;;;;;;;;;;;;;;;4438094;32;19959;-74
2023/04/04 01:51:01;;;;;;;;;;;;;;;;;;4438207;32;19936;-74
2023/04/04 01:53:27;;;;;;;;;;;;;;;;;;4452640;32;20261;-74
2023/04/04 01:55:53;;;;;;;;;;;;;;;;;;4451416;32;19951;-74
2023/04/04 01:58:18;;;;;;;;;;;;;;;;;;4451545;32;20373;-74
2023/04/04 02:00:43;;;;;;;;;;;;;;;;;;4451170;32;20339;-74
2023/04/04 02:03:08;;;;;;;;;;;;;;;;;;4452833;32;19940;-74
2023/04/04 02:05:33;;;;;;;;;;;;;;;;;;4455035;32;19967;-74
2023/04/04 02:07:58;;;;;;;;;;;;;;;;;;4455583;32;19933;-74
2023/04/04 02:10:23;;;;;;;;;;;;;;;;;;4440117;32;19968;-74
2023/04/04 02:12:48;;;;;;;;;;;;;;;;;;4448973;32;20361;-73
2023/04/04 02:15:13;;;;;;;;;;;;;;;;;;4454343;32;20035;-74
2023/04/04 02:17:39;;;;;;;;;;;;;;;;;;4454375;32;19951;-74
2023/04/04 02:20:04;;;;;;;;;;;;;;;;;;4454760;32;19959;-74
2023/04/04 02:22:29;;;;;;;;;;;;;;;;;;4440364;32;19988;-74
2023/04/04 02:24:56;;;;;;;;;;;;;;;;;;4454307;32;19956;-74
2023/04/04 02:27:21;;;;;;;;;;;;;;;;;;4439883;32;19936;-74
2023/04/04 02:29:47;;;;;;;;;;;;;;;;;;4455056;32;19933;-74
2023/04/04 02:32:12;;;;;;;;;;;;;;;;;;4453901;32;19936;-74
2023/04/04 02:34:37;;;;;;;;;;;;;;;;;;4439775;32;20428;-74
2023/04/04 02:37:02;;;;;;;;;;;;;;;;;;4455765;32;19964;-74
2023/04/04 02:39:27;;;;;;;;;;;;;;;;;;4454026;32;19936;-75
2023/04/04 02:41:54;;;;;;;;;;;;;;;;;;4426589;32;19948;-74
2023/04/04 02:44:19;;;;;;;;;;;;;;;;;;4438484;32;19947;-74
2023/04/04 02:46:44;;;;;;;;;;;;;;;;;;4439230;32;19937;-74
2023/04/04 02:49:09;;;;;;;;;;;;;;;;;;4439385;32;19937;-74
2023/04/04 02:51:35;;;;;;;;;;;;;;;;;;4440333;32;19959;-74
2023/04/04 02:54:01;;;;;;;;;;;;;;;;;;4437106;32;19928;-74
2023/04/04 02:56:27;;;;;;;;;;;;;;;;;;4437629;32;19933;-74
2023/04/04 02:58:52;;;;;;;;;;;;;;;;;;4438734;32;19951;-74
2023/04/04 03:01:17;;;;;;;;;;;;;;;;;;4437458;32;20356;-74
2023/04/04 03:03:42;;;;;;;;;;;;;;;;;;4438506;32;19956;-74
2023/04/04 03:06:07;;;;;;;;;;;;;;;;;;4439999;32;19937;-75
2023/04/04 03:08:34;;;;;;;;;;;;;;;;;;4439172;32;20364;-73
2023/04/04 03:10:59;;;;;;;;;;;;;;;;;;4436895;32;19933;-74
2023/04/04 03:13:24;;;;;;;;;;;;;;;;;;4437373;32;20012;-75
2023/04/04 03:15:50;;;;;;;;;;;;;;;;;;4436710;32;20355;-75
2023/04/04 03:18:15;;;;;;;;;;;;;;;;;;4437947;32;20262;-74
2023/04/04 03:20:40;;;;;;;;;;;;;;;;;;4425418;32;19929;-74
2023/04/04 03:23:05;;;;;;;;;;;;;;;;;;4421525;32;19937;-74
2023/04/04 03:25:31;;;;;;;;;;;;;;;;;;4422999;32;20270;-74
2023/04/04 03:27:56;;;;;;;;;;;;;;;;;;4423858;32;20014;-74
2023/04/04 03:30:21;;;;;;;;;;;;;;;;;;4424037;32;19937;-74
2023/04/04 03:32:46;;;;;;;;;;;;;;;;;;4439571;32;20014;-73
2023/04/04 03:35:11;;;;;;;;;;;;;;;;;;4425218;32;19973;-73
2023/04/04 03:37:36;;;;;;;;;;;;;;;;;;4423936;32;20336;-74
2023/04/04 03:40:02;;;;;;;;;;;;;;;;;;4423875;32;19937;-73
2023/04/04 03:42:27;;;;;;;;;;;;;;;;;;4425147;32;19966;-73
2023/04/04 03:44:52;;;;;;;;;;;;;;;;;;4427701;32;19947;-73
2023/04/04 03:47:17;;;;;;;;;;;;;;;;;;4439562;32;19941;-72
2023/04/04 03:49:42;;;;;;;;;;;;;;;;;;4438796;32;20018;-72
2023/04/04 03:52:07;;;;;;;;;;;;;;;;;;4437595;32;19966;-73
2023/04/04 03:54:33;;;;;;;;;;;;;;;;;;4423520;32;19984;-72
2023/04/04 03:56:58;;;;;;;;;;;;;;;;;;4423940;32;19930;-73
2023/04/04 03:59:23;;;;;;;;;;;;;;;;;;4423426;32;19955;-74
2023/04/04 04:01:48;;;;;;;;;;;;;;;;;;4423849;32;19936;-75
2023/04/04 04:04:14;;;;;;;;;;;;;;;;;;4438716;32;19964;-74
2023/04/04 04:06:39;;;;;;;;;;;;;;;;;;4438082;32;19970;-74
2023/04/04 04:09:04;;;;;;;;;;;;;;;;;;4423919;32;19951;-74
2023/04/04 04:11:29;;;;;;;;;;;;;;;;;;4437412;32;19944;-73
2023/04/04 04:13:54;;;;;;;;;;;;;;;;;;4450972;32;20333;-74
2023/04/04 04:16:20;;;;;;;;;;;;;;;;;;4439095;32;19933;-74
2023/04/04 04:18:45;;;;;;;;;;;;;;;;;;4453287;32;20312;-74
2023/04/04 04:21:10;;;;;;;;;;;;;;;;;;4438303;32;19951;-72
2023/04/04 04:23:36;;;;;;;;;;;;;;;;;;4452637;32;19940;-74
2023/04/04 04:26:01;;;;;;;;;;;;;;;;;;4439496;32;19951;-74
2023/04/04 04:28:26;;;;;;;;;;;;;;;;;;4452294;32;19955;-74
2023/04/04 04:30:51;;;;;;;;;;;;;;;;;;4438271;32;19952;-73
2023/04/04 04:33:16;;;;;;;;;;;;;;;;;;4452644;32;20339;-73
2023/04/04 04:35:41;;;;;;;;;;;;;;;;;;4438208;32;19936;-73
2023/04/04 04:38:07;;;;;;;;;;;;;;;;;;4452222;32;19985;-74
2023/04/04 04:40:32;;;;;;;;;;;;;;;;;;4438173;32;19932;-75
2023/04/04 04:42:57;;;;;;;;;;;;;;;;;;4453329;32;20257;-74
2023/04/04 04:45:22;;;;;;;;;;;;;;;;;;4452994;32;19969;-74
2023/04/04 04:47:47;;;;;;;;;;;;;;;;;;4452619;32;19932;-74
2023/04/04 04:50:12;;;;;;;;;;;;;;;;;;4438286;32;19976;-73
2023/04/04 04:52:38;;;;;;;;;;;;;;;;;;4452801;32;19932;-74
2023/04/04 04:55:03;;;;;;;;;;;;;;;;;;4454304;32;19964;-73
2023/04/04 04:57:28;;;;;;;;;;;;;;;;;;4441986;32;20261;-73
2023/04/04 04:59:53;;;;;;;;;;;;;;;;;;4452642;32;20315;-73
2023/04/04 05:02:19;;;;;;;;;;;;;;;;;;4454078;32;19956;-73
2023/04/04 05:04:44;;;;;;;;;;;;;;;;;;4452670;32;19947;-75
2023/04/04 05:07:11;;;;;;;;;;;;;;;;;;4437778;32;20354;-74
2023/04/04 05:09:36;;;;;;;;;;;;;;;;;;4452540;32;19940;-74
2023/04/04 05:12:01;;;;;;;;;;;;;;;;;;4437908;32;19933;-75
2023/04/04 05:14:26;;;;;;;;;;;;;;;;;;4438872;32;19932;-75
2023/04/04 05:16:51;;;;;;;;;;;;;;;;;;4454157;32;19933;-74
2023/04/04 05:19:17;;;;;;;;;;;;;;;;;;4452054;32;19992;-74
2023/04/04 05:21:42;;;;;;;;;;;;;;;;;;4437721;32;19994;-74
2023/04/04 05:24:07;;;;;;;;;;;;;;;;;;4451832;32;20346;-74
2023/04/04 05:26:32;;;;;;;;;;;;;;;;;;4445055;32;19941;-74
2023/04/04 05:28:58;;;;;;;;;;;;;;;;;;4422359;32;19933;-74
2023/04/04 05:31:24;;;;;;;;;;;;;;;;;;4434550;32;20038;-74
2023/04/04 05:33:49;;;;;;;;;;;;;;;;;;4422055;32;19981;-75
2023/04/04 05:36:15;;;;;;;;;;;;;;;;;;4421946;32;20287;-74
2023/04/04 05:38:40;;;;;;;;;;;;;;;;;;4422035;32;19947;-74
2023/04/04 05:41:05;;;;;;;;;;;;;;;;;;4435927;32;19933;-73
2023/04/04 05:43:30;;;;;;;;;;;;;;;;;;4436016;32;19941;-74
2023/04/04 05:45:55;;;;;;;;;;;;;;;;;;4435916;32;19959;-75
2023/04/04 05:48:20;;;;;;;;;;;;;;;;;;4436289;32;19933;-74
2023/04/04 05:50:46;;;;;;;;;;;;;;;;;;4436699;32;19937;-74
2023/04/04 05:53:11;;;;;;;;;;;;;;;;;;4423545;32;19952;-74
2023/04/04 05:55:36;;;;;;;;;;;;;;;;;;4437858;32;19945;-74
2023/04/04 05:58:01;;;;;;;;;;;;;;;;;;4435657;32;20344;-74
2023/04/04 06:00:26;;;;;;;;;;;;;;;;;;4422050;32;19940;-74
2023/04/04 06:02:52;;;;;;;;;;;;;;;;;;4436455;32;19941;-74
2023/04/04 06:05:17;;;;;;;;;;;;;;;;;;4422994;32;20221;-74
2023/04/04 06:07:42;;;;;;;;;;;;;;;;;;4435950;32;20011;-73
2023/04/04 06:10:08;;;;;;;;;;;;;;;;;;4421971;32;19944;-75
2023/04/04 06:12:33;;;;;;;;;;;;;;;;;;4435828;32;20353;-74
2023/04/04 06:14:58;;;;;;;;;;;;;;;;;;4423494;32;19940;-75
2023/04/04 06:17:23;;;;;;;;;;;;;;;;;;4421801;32;20086;-74
2023/04/04 06:19:48;;;;;;;;;;;;;;;;;;4422132;32;19940;-74
2023/04/04 06:22:14;;;;;;;;;;;;;;;;;;4436840;32;19982;-74
2023/04/04 06:24:40;;;;;;;;;;;;;;;;;;4437473;32;20031;-74
2023/04/04 06:27:05;;;;;;;;;;;;;;;;;;4422016;32;19941;-74
2023/04/04 06:29:30;;;;;;;;;;;;;;;;;;4435720;32;19937;-74
2023/04/04 06:31:56;;;;;;;;;;;;;;;;;;4422465;32;20010;-74
2023/04/04 06:34:22;;;;;;;;;;;;;;;;;;4421361;32;19954;-73
2023/04/04 06:36:47;;;;;;;;;;;;;;;;;;4423322;32;19944;-74
2023/04/04 06:39:12;;;;;;;;;;;;;;;;;;4437266;32;20288;-74
2023/04/04 06:41:37;;;;;;;;;;;;;;;;;;4421345;32;19973;-74
2023/04/04 06:44:02;;;;;;;;;;;;;;;;;;4421933;32;19989;-74
2023/04/04 06:46:29;;;;;;;;;;;;;;;;;;4436550;32;19948;-74
2023/04/04 06:48:54;;;;;;;;;;;;;;;;;;4438208;32;19947;-74
2023/04/04 06:51:20;;;;;;;;;;;;;;;;;;4416729;32;19989;-75
2023/04/04 06:53:46;;;;;;;;;;;;;;;;;;4423463;32;19940;-75
2023/04/04 06:56:11;;;;;;;;;;;;;;;;;;4423139;32;19975;-75
2023/04/04 06:58:37;;;;;;;;;;;;;;;;;;4423194;32;20219;-75
2023/04/04 07:01:03;;;;;;;;;;;;;;;;;;4426131;32;20348;-74
2023/04/04 07:03:28;;;;;;;;;;;;;;;;;;4424581;32;19992;-73
2023/04/04 07:05:53;;;;;;;;;;;;;;;;;;4439899;32;19983;-74
2023/04/04 07:08:18;;;;;;;;;;;;;;;;;;4424422;32;19937;-74
2023/04/04 07:10:43;;;;;;;;;;;;;;;;;;4424103;32;19976;-74
2023/04/04 07:13:09;;;;;;;;;;;;;;;;;;4438612;32;20302;-73
2023/04/04 07:15:34;;;;;;;;;;;;;;;;;;4424256;32;19960;-73
2023/04/04 07:18:00;;;;;;;;;;;;;;;;;;4438427;32;19937;-74
2023/04/04 07:20:27;;;;;;;;;;;;;;;;;;4437084;32;20380;-74
2023/04/04 07:22:52;;;;;;;;;;;;;;;;;;4423761;32;19941;-75
2023/04/04 07:25:17;;;;;;;;;;;;;;;;;;4424089;32;19937;-74
2023/04/04 07:27:42;;;;;;;;;;;;;;;;;;4409401;32;19938;-73
2023/04/04 07:30:07;;;;;;;;;;;;;;;;;;4419047;32;20334;-74
2023/04/04 07:32:33;;;;;;;;;;;;;;;;;;4423376;32;20294;-74
2023/04/04 07:34:58;;;;;;;;;;;;;;;;;;4423503;32;20356;-73
2023/04/04 07:37:25;;;;;;;;;;;;;;;;;;4422436;32;19948;-73
2023/04/04 07:39:50;;;;;;;;;;;;;;;;;;4421957;32;19994;-73
2023/04/04 07:42:21;;;;;;;;;;;;;;;;;;4421048;32;20276;-75
2023/04/04 07:44:46;;;;;;;;;;;;;;;;;;4421610;32;19966;-74
2023/04/04 07:47:11;;;;;;;;;;;;;;;;;;4424034;32;19945;-73
2023/04/04 07:49:37;;;;;;;;;;;;;;;;;;4422643;32;19978;-73
2023/04/04 07:52:02;;;;;;;;;;;;;;;;;;4422525;32;20020;-73
2023/04/04 07:54:27;;;;;;;;;;;;;;;;;;4421299;32;19960;-75
2023/04/04 07:56:52;;;;;;;;;;;;;;;;;;4425083;32;19944;-73
2023/04/04 07:59:17;;;;;;;;;;;;;;;;;;4423333;32;20322;-72
2023/04/04 08:01:43;;;;;;;;;;;;;;;;;;4429050;32;19980;-74
2023/04/04 08:04:08;;;;;;;;;;;;;;;;;;4437374;32;19936;-74
2023/04/04 08:06:34;;;;;;;;;;;;;;;;;;4423464;32;20345;-74
2023/04/04 08:08:59;;;;;;;;;;;;;;;;;;4437329;32;20044;-73
2023/04/04 08:11:24;;;;;;;;;;;;;;;;;;4437622;32;19941;-72
2023/04/04 08:13:50;;;;;;;;;;;;;;;;;;4438827;32;19960;-73
2023/04/04 08:16:16;;;;;;;;;;;;;;;;;;4437802;32;19933;-73
2023/04/04 08:18:41;;;;;;;;;;;;;;;;;;4424209;32;19937;-73
2023/04/04 08:21:07;;;;;;;;;;;;;;;;;;4424059;32;19988;-73
2023/04/04 08:23:32;;;;;;;;;;;;;;;;;;4422993;32;19943;-73
2023/04/04 08:25:58;;;;;;;;;;;;;;;;;;4436981;32;20249;-74
2023/04/04 08:28:23;;;;;;;;;;;;;;;;;;4416426;32;19972;-73
2023/04/04 08:30:49;;;;;;;;;;;;;;;;;;4421829;32;19974;-74
2023/04/04 08:33:14;;;;;;;;;;;;;;;;;;4421477;32;19969;-73
2023/04/04 08:35:39;;;;;;;;;;;;;;;;;;4421408;32;20347;-73
2023/04/04 08:38:07;;;;;;;;;;;;;;;;;;4421359;32;19937;-72
2023/04/04 08:40:32;;;;;;;;;;;;;;;;;;4421423;32;20306;-73
2023/04/04 08:42:58;;;;;;;;;;;;;;;;;;4421560;32;20001;-73
2023/04/04 08:45:23;;;;;;;;;;;;;;;;;;4421257;32;19992;-72
2023/04/04 08:47:52;;;;;;;;;;;;;;;;;;4409105;32;19975;-73
2023/04/04 08:50:17;;;;;;;;;;;;;;;;;;4407300;32;20322;-73
2023/04/04 08:52:43;;;;;;;;;;;;;;;;;;4422855;32;19933;-73
2023/04/04 08:55:09;;;;;;;;;;;;;;;;;;4420889;32;19985;-73
2023/04/04 08:57:34;;;;;;;;;;;;;;;;;;4437334;32;19932;-73
2023/04/04 09:00:01;;;;;;;;;;;;;;;;;;4437452;32;19955;-73
2023/04/04 09:02:26;;;;;;;;;;;;;;;;;;4437221;32;20000;-73
2023/04/04 09:04:52;;;;;;;;;;;;;;;;;;4421884;32;19955;-74
2023/04/04 09:07:18;;;;;;;;;;;;;;;;;;4422869;32;19978;-74
2023/04/04 09:09:43;;;;;;;;;;;;;;;;;;4436959;32;19941;-74
2023/04/04 09:12:08;;;;;;;;;;;;;;;;;;4437071;32;19944;-73
2023/04/04 09:14:33;;;;;;;;;;;;;;;;;;4437748;32;20046;-72
2023/04/04 09:16:58;;;;;;;;;;;;;;;;;;4426494;32;19937;-73
2023/04/04 09:19:23;;;;;;;;;;;;;;;;;;4437817;32;19933;-74
2023/04/04 09:21:48;;;;;;;;;;;;;;;;;;4436260;32;20308;-74
2023/04/04 09:24:14;;;;;;;;;;;;;;;;;;4437160;32;20378;-73
2023/04/04 09:26:39;;;;;;;;;;;;;;;;;;4435967;32;19936;-73
2023/04/04 09:29:04;;;;;;;;;;;;;;;;;;4421964;32;19951;-73
2023/04/04 09:31:29;;;;;;;;;;;;;;;;;;4436703;32;19979;-73
2023/04/04 09:33:54;;;;;;;;;;;;;;;;;;4436143;32;19932;-73
2023/04/04 09:36:20;;;;;;;;;;;;;;;;;;4436320;32;19948;-75
2023/04/04 09:38:47;;;;;;;;;;;;;;;;;;4424859;32;20281;-74
2023/04/04 09:41:12;;;;;;;;;;;;;;;;;;4438998;32;19941;-77
2023/04/04 09:43:37;;;;;;;;;;;;;;;;;;4436390;32;19928;-74
2023/04/04 09:46:03;;;;;;;;;;;;;;;;;;4436453;32;19963;-75
2023/04/04 09:48:28;;;;;;;;;;;;;;;;;;4422429;32;19936;-73
2023/04/04 09:50:53;;;;;;;;;;;;;;;;;;4421726;32;19989;-71
2023/04/04 09:53:18;;;;;;;;;;;;;;;;;;4436192;32;20305;-75
2023/04/04 09:55:43;;;;;;;;;;;;;;;;;;4436543;32;19932;-73
2023/04/04 09:58:08;;;;;;;;;;;;;;;;;;4436264;32;19985;-74
2023/04/04 10:00:37;;;;;;;;;;;;;;;;;;4436368;32;19949;-74
2023/04/04 10:03:02;;;;;;;;;;;;;;;;;;4422099;32;19960;-73
2023/04/04 10:05:27;;;;;;;;;;;;;;;;;;4435518;32;19994;-72
2023/04/04 10:07:52;;;;;;;;;;;;;;;;;;4436940;32;19933;-77
2023/04/04 10:10:18;;;;;;;;;;;;;;;;;;4436772;32;19933;-74
2023/04/04 10:12:43;;;;;;;;;;;;;;;;;;4425950;32;19979;-76
2023/04/04 10:15:08;;;;;;;;;;;;;;;;;;4421334;32;19967;-78
2023/04/04 10:17:34;;;;;;;;;;;;;;;;;;4421428;32;20101;-79
2023/04/04 10:20:00;;;;;;;;;;;;;;;;;;4419254;32;20001;-78
2023/04/04 10:22:25;;;;;;;;;;;;;;;;;;4422215;32;20243;-79
2023/04/04 10:24:52;;;;;;;;;;;;;;;;;;4438544;32;19952;-78
2023/04/04 10:27:17;;;;;;;;;;;;;;;;;;4438820;32;19956;-78
2023/04/04 10:29:43;;;;;;;;;;;;;;;;;;4439201;32;20332;-76
2023/04/04 10:32:08;;;;;;;;;;;;;;;;;;4425174;32;19947;-77
2023/04/04 10:34:33;;;;;;;;;;;;;;;;;;4424758;32;19994;-76
2023/04/04 10:36:58;;;;;;;;;;;;;;;;;;4438945;32;19947;-74
2023/04/04 10:39:23;;;;;;;;;;;;;;;;;;4438687;32;19952;-73
2023/04/04 10:41:49;;;;;;;;;;;;;;;;;;4438796;32;19932;-75
2023/04/04 10:44:14;;;;;;;;;;;;;;;;;;4438886;32;20320;-76
2023/04/04 10:46:39;;;;;;;;;;;;;;;;;;4426217;32;19933;-74
2023/04/04 10:49:04;;;;;;;;;;;;;;;;;;4422740;32;19972;-76
2023/04/04 10:51:30;;;;;;;;;;;;;;;;;;4420995;32;19937;-77
2023/04/04 10:53:55;;;;;;;;;;;;;;;;;;4424624;32;19947;-74
2023/04/04 10:56:21;;;;;;;;;;;;;;;;;;4437986;32;19944;-73
2023/04/04 10:58:46;;;;;;;;;;;;;;;;;;4438658;32;19949;-73
2023/04/04 11:01:13;;;;;;;;;;;;;;;;;;4440072;32;20234;-74
2023/04/04 11:03:38;;;;;;;;;;;;;;;;;;4436975;32;19941;-72
2023/04/04 11:06:03;;;;;;;;;;;;;;;;;;4438435;32;19951;-72
2023/04/04 11:08:29;;;;;;;;;;;;;;;;;;4438394;32;20000;-73
2023/04/04 11:10:54;;;;;;;;;;;;;;;;;;4424353;32;19968;-74
2023/04/04 11:13:22;;;;;;;;;;;;;;;;;;4427887;32;19996;-73
2023/04/04 11:15:47;;;;;;;;;;;;;;;;;;4421702;32;20264;-75
2023/04/04 11:18:12;;;;;;;;;;;;;;;;;;4423044;32;20321;-74
2023/04/04 11:20:39;;;;;;;;;;;;;;;;;;4422585;32;19990;-74
2023/04/04 11:23:04;;;;;;;;;;;;;;;;;;4422603;32;20033;-75
2023/04/04 11:25:29;;;;;;;;;;;;;;;;;;4422285;32;19941;-73
2023/04/04 11:27:57;;;;;;;;;;;;;;;;;;4421617;32;20318;-75
2023/04/04 11:30:23;;;;;;;;;;;;;;;;;;4422349;32;19951;-75
2023/04/04 11:32:48;;;;;;;;;;;;;;;;;;4422319;32;19941;-74
2023/04/04 11:35:14;;;;;;;;;;;;;;;;;;4420991;32;20060;-74
2023/04/04 11:37:39;;;;;;;;;;;;;;;;;;4422463;32;19952;-75
2023/04/04 11:40:04;;;;;;;;;;;;;;;;;;4422929;32;19972;-75
2023/04/04 11:42:29;;;;;;;;;;;;;;;;;;4421825;32;19947;-75
2023/04/04 11:44:54;;;;;;;;;;;;;;;;;;4421018;32;19999;-75
2023/04/04 11:47:19;;;;;;;;;;;;;;;;;;4420940;32;19994;-75
2023/04/04 11:49:45;;;;;;;;;;;;;;;;;;4422213;32;19968;-74
2023/04/04 11:52:10;;;;;;;;;;;;;;;;;;4423387;32;19937;-74
2023/04/04 11:54:36;;;;;;;;;;;;;;;;;;4423743;32;19976;-75
2023/04/04 11:57:02;;;;;;;;;;;;;;;;;;4422145;32;19951;-75
2023/04/04 11:59:27;;;;;;;;;;;;;;;;;;4421276;32;19945;-75
2023/04/04 12:01:52;;;;;;;;;;;;;;;;;;4421053;32;20302;-75
2023/04/04 12:04:18;;;;;;;;;;;;;;;;;;4420563;32;20356;-75
2023/04/04 12:06:43;;;;;;;;;;;;;;;;;;4421729;32;19969;-74
2023/04/04 12:09:11;;;;;;;;;;;;;;;;;;4422466;32;19941;-74
2023/04/04 12:11:36;;;;;;;;;;;;;;;;;;4422595;32;20009;-73
2023/04/04 12:14:01;;;;;;;;;;;;;;;;;;4421065;32;19985;-73
2023/04/04 12:16:26;;;;;;;;;;;;;;;;;;4422896;32;20335;-75
2023/04/04 12:18:52;;;;;;;;;;;;;;;;;;4425260;32;19959;-74
2023/04/04 12:21:17;;;;;;;;;;;;;;;;;;4423833;32;19937;-74
2023/04/04 12:23:42;;;;;;;;;;;;;;;;;;4420699;32;19937;-73
2023/04/04 12:26:08;;;;;;;;;;;;;;;;;;4421995;32;19929;-74
2023/04/04 12:28:34;;;;;;;;;;;;;;;;;;4420271;32;19966;-75
2023/04/04 12:31:04;;;;;;;;;;;;;;;;;;4420124;32;19940;-74
2023/04/04 12:33:29;;;;;;;;;;;;;;;;;;4420524;32;20310;-74
2023/04/04 12:35:54;;;;;;;;;;;;;;;;;;4419755;32;20298;-73
2023/04/04 12:38:19;;;;;;;;;;;;;;;;;;4435416;32;19944;-74
2023/04/04 12:40:44;;;;;;;;;;;;;;;;;;4437805;32;19933;-74
2023/04/04 12:43:10;;;;;;;;;;;;;;;;;;4422433;32;19948;-74
2023/04/04 12:45:35;;;;;;;;;;;;;;;;;;4422591;32;19981;-74
2023/04/04 12:48:00;;;;;;;;;;;;;;;;;;4422043;32;19948;-73
2023/04/04 12:50:26;;;;;;;;;;;;;;;;;;4436127;32;20325;-74
2023/04/04 12:52:54;;;;;;;;;;;;;;;;;;4436246;32;19971;-74
2023/04/04 12:55:19;;;;;;;;;;;;;;;;;;4415587;32;20284;-74
2023/04/04 12:57:45;;;;;;;;;;;;;;;;;;4421100;32;20302;-74
2023/04/04 13:00:11;;;;;;;;;;;;;;;;;;4421127;32;19951;-74
2023/04/04 13:02:36;;;;;;;;;;;;;;;;;;4421859;32;19941;-75
2023/04/04 13:05:01;;;;;;;;;;;;;;;;;;4422389;32;19941;-74
2023/04/04 13:07:26;;;;;;;;;;;;;;;;;;4421468;32;19949;-73
2023/04/04 13:09:52;;;;;;;;;;;;;;;;;;4420970;32;19937;-74
2023/04/04 13:12:17;;;;;;;;;;;;;;;;;;4423873;32;19952;-74
2023/04/04 13:14:42;;;;;;;;;;;;;;;;;;4435739;32;20309;-73
2023/04/04 13:17:08;;;;;;;;;;;;;;;;;;4422275;32;20034;-72
2023/04/04 13:19:33;;;;;;;;;;;;;;;;;;4437110;32;19941;-73
2023/04/04 13:21:58;;;;;;;;;;;;;;;;;;4422031;32;19956;-73
2023/04/04 13:24:23;;;;;;;;;;;;;;;;;;4436170;32;19936;-74
2023/04/04 13:26:48;;;;;;;;;;;;;;;;;;4436756;32;19966;-73
2023/04/04 13:29:13;;;;;;;;;;;;;;;;;;4439614;32;20300;-72
2023/04/04 13:31:38;;;;;;;;;;;;;;;;;;4436506;32;19936;-73
2023/04/04 13:34:04;;;;;;;;;;;;;;;;;;4437235;32;19955;-73
2023/04/04 13:36:30;;;;;;;;;;;;;;;;;;4437295;32;19933;-72
2023/04/04 13:38:55;;;;;;;;;;;;;;;;;;4435993;32;19996;-73
2023/04/04 13:41:20;;;;;;;;;;;;;;;;;;4423726;32;19997;-73
2023/04/04 13:43:45;;;;;;;;;;;;;;;;;;4435861;32;19980;-73
2023/04/04 13:46:10;;;;;;;;;;;;;;;;;;4422326;32;19941;-73
2023/04/04 13:48:35;;;;;;;;;;;;;;;;;;4423676;32;19937;-73
2023/04/04 13:51:01;;;;;;;;;;;;;;;;;;4421885;32;19947;-73
2023/04/04 13:53:26;;;;;;;;;;;;;;;;;;4422109;32;19937;-72
2023/04/04 13:55:51;;;;;;;;;;;;;;;;;;4432450;32;19941;-73
2023/04/04 13:58:19;;;;;;;;;;;;;;;;;;4420355;32;19993;-73
2023/04/04 14:00:44;;;;;;;;;;;;;;;;;;4424566;32;20508;-72
2023/04/04 14:03:09;;;;;;;;;;;;;;;;;;4440208;32;19932;-73
2023/04/04 14:05:34;;;;;;;;;;;;;;;;;;4440231;32;19945;-72
2023/04/04 14:08:00;;;;;;;;;;;;;;;;;;4440393;32;19937;-73
2023/04/04 14:10:25;;;;;;;;;;;;;;;;;;4425200;32;19949;-73
2023/04/04 14:12:51;;;;;;;;;;;;;;;;;;4425108;32;19933;-73
2023/04/04 14:15:17;;;;;;;;;;;;;;;;;;4438994;32;20290;-73
2023/04/04 14:17:42;;;;;;;;;;;;;;;;;;4438930;32;19933;-72
2023/04/04 14:20:07;;;;;;;;;;;;;;;;;;4439159;32;20278;-72
2023/04/04 14:22:32;;;;;;;;;;;;;;;;;;4424395;32;20105;-72
2023/04/04 14:24:58;;;;;;;;;;;;;;;;;;4438183;32;19971;-72
2023/04/04 14:27:23;;;;;;;;;;;;;;;;;;4424693;32;20354;-72
2023/04/04 14:29:48;;;;;;;;;;;;;;;;;;4424442;32;20347;-72
2023/04/04 14:32:13;;;;;;;;;;;;;;;;;;4424861;32;20015;-71
2023/04/04 14:34:38;;;;;;;;;;;;;;;;;;4424961;32;19945;-73
2023/04/04 14:37:03;;;;;;;;;;;;;;;;;;4433165;32;20367;-72
2023/04/04 14:39:28;;;;;;;;;;;;;;;;;;4423315;32;19941;-72
2023/04/04 14:41:53;;;;;;;;;;;;;;;;;;4423414;32;19933;-72
2023/04/04 14:44:20;;;;;;;;;;;;;;;;;;4422876;32;19981;-72
2023/04/04 14:46:46;;;;;;;;;;;;;;;;;;4424068;32;19988;-72
2023/04/04 14:49:11;;;;;;;;;;;;;;;;;;4421691;32;19940;-72
2023/04/04 14:51:36;;;;;;;;;;;;;;;;;;4422973;32;19951;-72
2023/04/04 14:54:01;;;;;;;;;;;;;;;;;;4423867;32;20247;-72
2023/04/04 14:56:27;;;;;;;;;;;;;;;;;;4411480;32;20314;-72
2023/04/04 14:58:52;;;;;;;;;;;;;;;;;;4422852;32;19945;-72
2023/04/04 15:01:19;;;;;;;;;;;;;;;;;;4423495;32;20305;-73
2023/04/04 15:03:44;;;;;;;;;;;;;;;;;;4422839;32;20038;-71
2023/04/04 15:06:09;;;;;;;;;;;;;;;;;;4408944;32;19948;-73
2023/04/04 15:08:34;;;;;;;;;;;;;;;;;;4422898;32;19933;-73
2023/04/04 15:10:59;;;;;;;;;;;;;;;;;;4410847;32;20326;-73
2023/04/04 15:13:24;;;;;;;;;;;;;;;;;;4423838;32;20398;-73
2023/04/04 15:15:49;;;;;;;;;;;;;;;;;;4423887;32;19937;-72
2023/04/04 15:18:15;;;;;;;;;;;;;;;;;;4438205;32;19988;-73
2023/04/04 15:20:40;;;;;;;;;;;;;;;;;;4437641;32;20273;-73
2023/04/04 15:23:05;;;;;;;;;;;;;;;;;;4423556;32;19937;-73
2023/04/04 15:25:30;;;;;;;;;;;;;;;;;;4437557;32;19997;-73
2023/04/04 15:27:55;;;;;;;;;;;;;;;;;;4438429;32;20273;-72
2023/04/04 15:30:22;;;;;;;;;;;;;;;;;;4439567;32;19978;-73
2023/04/04 15:32:47;;;;;;;;;;;;;;;;;;4424143;32;19969;-72
2023/04/04 15:35:12;;;;;;;;;;;;;;;;;;4438400;32;19949;-72
2023/04/04 15:37:37;;;;;;;;;;;;;;;;;;4437582;32;19970;-73
2023/04/04 15:40:02;;;;;;;;;;;;;;;;;;4424625;32;20265;-73
2023/04/04 15:42:28;;;;;;;;;;;;;;;;;;4426170;32;19947;-71
2023/04/04 15:44:53;;;;;;;;;;;;;;;;;;4424000;32;19929;-73
2023/04/04 15:47:18;;;;;;;;;;;;;;;;;;4428238;32;20219;-73
2023/04/04 15:49:43;;;;;;;;;;;;;;;;;;4423665;32;19987;-72
2023/04/04 15:52:08;;;;;;;;;;;;;;;;;;4426186;32;19998;-73
2023/04/04 15:54:33;;;;;;;;;;;;;;;;;;4420944;32;19941;-71
2023/04/04 15:56:58;;;;;;;;;;;;;;;;;;4423601;32;19938;-72
2023/04/04 15:59:23;;;;;;;;;;;;;;;;;;4422753;32;19988;-73
2023/04/04 16:01:49;;;;;;;;;;;;;;;;;;4422825;32;19952;-70
2023/04/04 16:04:14;;;;;;;;;;;;;;;;;;4423196;32;20431;-71
2023/04/04 16:06:39;;;;;;;;;;;;;;;;;;4422177;32;19933;-72
2023/04/04 16:09:04;;;;;;;;;;;;;;;;;;4421054;32;20238;-74
2023/04/04 16:11:29;;;;;;;;;;;;;;;;;;4420592;32;19936;-72
2023/04/04 16:13:55;;;;;;;;;;;;;;;;;;4422846;32;19970;-74
2023/04/04 16:16:20;;;;;;;;;;;;;;;;;;4423110;32;20267;-73
2023/04/04 16:18:45;;;;;;;;;;;;;;;;;;4429739;32;20008;-72
2023/04/04 16:21:10;;;;;;;;;;;;;;;;;;4437035;32;19984;-73
2023/04/04 16:23:35;;;;;;;;;;;;;;;;;;4419031;32;22407;-72
2023/04/04 16:26:00;;;;;;;;;;;;;;;;;;4419654;32;19978;-72
2023/04/04 16:28:26;;;;;;;;;;;;;;;;;;4430891;32;19945;-73
2023/04/04 16:30:51;;;;;;;;;;;;;;;;;;4427127;32;19937;-72
2023/04/04 16:33:16;;;;;;;;;;;;;;;;;;4422324;32;19964;-73